sensor_id;sensor_type;location;lat;lon;timestamp;pressure;altitude;pressure_sealevel;temperature;humidity
17260;BME280;8746;49.230;9.220;2022-09-12T00:01:38;100154.66;;;12.86;89.88
17260;BME280;8746;49.230;9.220;2022-09-12T00:04:04;100154.91;;;12.81;90.06
17260;BME280;8746;49.230;9.220;2022-09-12T00:06:33;100143.38;;;12.82;90.97
17260;BME280;8746;49.230;9.220;2022-09-12T00:09:01;100140.06;;;12.77;91.05
17260;BME280;8746;49.230;9.220;2022-09-12T00:11:27;100146.97;;;12.81;91.01
17260;BME280;8746;49.230;9.220;2022-09-12T00:13:58;100139.66;;;12.86;90.92
17260;BME280;8746;49.230;9.220;2022-09-12T00:16:25;100144.25;;;12.82;90.69
17260;BME280;8746;49.230;9.220;2022-09-12T00:18:50;100141.50;;;12.84;91.32
17260;BME280;8746;49.230;9.220;2022-09-12T00:21:18;100137.00;;;12.86;90.73
17260;BME280;8746;49.230;9.220;2022-09-12T00:23:44;100138.94;;;12.82;90.88
17260;BME280;8746;49.230;9.220;2022-09-12T00:26:11;100140.06;;;12.77;91.24
17260;BME280;8746;49.230;9.220;2022-09-12T00:28:38;100131.09;;;12.81;91.06
17260;BME280;8746;49.230;9.220;2022-09-12T00:31:06;100124.75;;;12.64;90.59
17260;BME280;8746;49.230;9.220;2022-09-12T00:33:32;100132.56;;;12.68;90.91
17260;BME280;8746;49.230;9.220;2022-09-12T00:35:58;100129.13;;;12.65;90.75
17260;BME280;8746;49.230;9.220;2022-09-12T00:38:23;100123.97;;;12.62;90.80
17260;BME280;8746;49.230;9.220;2022-09-12T00:40:48;100123.97;;;12.62;90.31
17260;BME280;8746;49.230;9.220;2022-09-12T00:45:40;100131.13;;;12.60;90.38
17260;BME280;8746;49.230;9.220;2022-09-12T00:48:16;100130.75;;;12.49;90.00
17260;BME280;8746;49.230;9.220;2022-09-12T00:50:43;100127.44;;;12.44;90.75
17260;BME280;8746;49.230;9.220;2022-09-12T00:53:09;100126.72;;;12.40;91.52
17260;BME280;8746;49.230;9.220;2022-09-12T00:55:38;100119.72;;;12.39;91.88
17260;BME280;8746;49.230;9.220;2022-09-12T00:58:13;100117.16;;;12.38;91.38
17260;BME280;8746;49.230;9.220;2022-09-12T01:00:41;100111.50;;;12.45;90.34
17260;BME280;8746;49.230;9.220;2022-09-12T01:03:10;100107.56;;;12.35;90.94
17260;BME280;8746;49.230;9.220;2022-09-12T01:05:40;100111.34;;;12.29;92.19
17260;BME280;8746;49.230;9.220;2022-09-12T01:08:08;100101.03;;;12.23;92.44
17260;BME280;8746;49.230;9.220;2022-09-12T01:10:34;100108.69;;;12.29;92.49
17260;BME280;8746;49.230;9.220;2022-09-12T01:13:04;100101.56;;;12.31;92.12
17260;BME280;8746;49.230;9.220;2022-09-12T01:15:30;100099.72;;;12.33;91.57
17260;BME280;8746;49.230;9.220;2022-09-12T01:23:55;100095.69;;;12.44;91.73
17260;BME280;8746;49.230;9.220;2022-09-12T01:29:43;100095.88;;;12.41;91.34
17260;BME280;8746;49.230;9.220;2022-09-12T01:35:23;100087.53;;;12.29;90.93
17260;BME280;8746;49.230;9.220;2022-09-12T01:37:57;100082.50;;;12.23;91.14
17260;BME280;8746;49.230;9.220;2022-09-12T01:43:11;100090.72;;;12.17;90.83
17260;BME280;8746;49.230;9.220;2022-09-12T01:45:58;100090.69;;;12.18;90.78
17260;BME280;8746;49.230;9.220;2022-09-12T01:48:35;100092.53;;;12.16;90.24
17260;BME280;8746;49.230;9.220;2022-09-12T01:51:22;100090.72;;;12.17;90.53
17260;BME280;8746;49.230;9.220;2022-09-12T01:53:53;100083.66;;;12.17;91.14
17260;BME280;8746;49.230;9.220;2022-09-12T01:56:24;100086.13;;;12.22;91.93
17260;BME280;8746;49.230;9.220;2022-09-12T02:02:13;100088.16;;;12.15;91.30
17260;BME280;8746;49.230;9.220;2022-09-12T02:07:19;100083.94;;;12.11;90.92
17260;BME280;8746;49.230;9.220;2022-09-12T02:09:50;100090.81;;;12.15;90.29
17260;BME280;8746;49.230;9.220;2022-09-12T02:12:21;100081.78;;;12.00;90.96
17260;BME280;8746;49.230;9.220;2022-09-12T02:14:52;100083.50;;;12.01;91.25
17260;BME280;8746;49.230;9.220;2022-09-12T02:17:22;100082.06;;;11.93;91.78
17260;BME280;8746;49.230;9.220;2022-09-12T02:19:57;100087.69;;;11.85;92.12
17260;BME280;8746;49.230;9.220;2022-09-12T02:22:28;100077.25;;;11.82;92.40
17260;BME280;8746;49.230;9.220;2022-09-12T02:24:58;100074.81;;;11.77;92.10
17260;BME280;8746;49.230;9.220;2022-09-12T02:27:33;100078.22;;;11.79;92.21
17260;BME280;8746;49.230;9.220;2022-09-12T02:30:03;100077.38;;;11.79;92.63
17260;BME280;8746;49.230;9.220;2022-09-12T02:32:37;100081.09;;;11.75;91.66
17260;BME280;8746;49.230;9.220;2022-09-12T02:38:09;100073.16;;;11.75;91.75
17260;BME280;8746;49.230;9.220;2022-09-12T02:40:37;100070.44;;;11.76;91.14
17260;BME280;8746;49.230;9.220;2022-09-12T02:43:04;100066.34;;;11.69;90.98
17260;BME280;8746;49.230;9.220;2022-09-12T02:45:31;100075.19;;;11.68;91.26
17260;BME280;8746;49.230;9.220;2022-09-12T02:48:10;100063.03;;;11.64;91.35
17260;BME280;8746;49.230;9.220;2022-09-12T02:50:37;100055.91;;;11.66;91.54
17260;BME280;8746;49.230;9.220;2022-09-12T02:53:04;100056.97;;;11.62;91.74
17260;BME280;8746;49.230;9.220;2022-09-12T02:55:32;100065.81;;;11.61;91.50
17260;BME280;8746;49.230;9.220;2022-09-12T02:58:00;100058.09;;;11.56;91.45
17260;BME280;8746;49.230;9.220;2022-09-12T03:00:29;100063.38;;;11.56;91.33
17260;BME280;8746;49.230;9.220;2022-09-12T03:06:16;100061.78;;;11.52;91.44
17260;BME280;8746;49.230;9.220;2022-09-12T03:08:52;100058.41;;;11.48;91.36
17260;BME280;8746;49.230;9.220;2022-09-12T03:11:42;100053.19;;;11.47;91.54
17260;BME280;8746;49.230;9.220;2022-09-12T03:14:48;100061.13;;;11.47;91.42
17260;BME280;8746;49.230;9.220;2022-09-12T03:17:43;100056.81;;;11.44;91.08
17260;BME280;8746;49.230;9.220;2022-09-12T03:22:52;100059.66;;;11.39;91.47
17260;BME280;8746;49.230;9.220;2022-09-12T03:25:42;100063.47;;;11.32;91.54
17260;BME280;8746;49.230;9.220;2022-09-12T03:28:14;100058.06;;;11.35;91.61
17260;BME280;8746;49.230;9.220;2022-09-12T03:30:42;100062.66;;;11.30;91.51
17260;BME280;8746;49.230;9.220;2022-09-12T03:33:12;100054.75;;;11.30;91.46
17260;BME280;8746;49.230;9.220;2022-09-12T03:35:38;100061.88;;;11.28;91.64
17260;BME280;8746;49.230;9.220;2022-09-12T03:38:04;100058.59;;;11.23;92.43
17260;BME280;8746;49.230;9.220;2022-09-12T03:40:32;100060.34;;;11.22;92.17
17260;BME280;8746;49.230;9.220;2022-09-12T03:42:57;100064.78;;;11.22;92.53
17260;BME280;8746;49.230;9.220;2022-09-12T03:45:22;100059.53;;;11.20;92.30
17260;BME280;8746;49.230;9.220;2022-09-12T03:47:48;100063.97;;;11.20;92.33
17260;BME280;8746;49.230;9.220;2022-09-12T03:50:13;100056.97;;;11.19;92.19
17260;BME280;8746;49.230;9.220;2022-09-12T03:52:39;100062.25;;;11.19;91.99
17260;BME280;8746;49.230;9.220;2022-09-12T03:55:04;100055.00;;;11.24;91.62
17260;BME280;8746;49.230;9.220;2022-09-12T03:57:30;100057.13;;;11.16;91.51
17260;BME280;8746;49.230;9.220;2022-09-12T03:59:55;100061.44;;;11.17;92.10
17260;BME280;8746;49.230;9.220;2022-09-12T04:02:21;100059.28;;;11.06;91.29
17260;BME280;8746;49.230;9.220;2022-09-12T04:04:46;100051.47;;;11.03;91.33
17260;BME280;8746;49.230;9.220;2022-09-12T04:07:13;100055.75;;;11.05;91.83
17260;BME280;8746;49.230;9.220;2022-09-12T04:09:39;100062.88;;;11.03;91.65
17260;BME280;8746;49.230;9.220;2022-09-12T04:12:04;100062.88;;;11.03;91.55
17260;BME280;8746;49.230;9.220;2022-09-12T04:14:30;100059.63;;;10.97;91.67
17260;BME280;8746;49.230;9.220;2022-09-12T04:16:55;100059.69;;;10.95;91.80
17260;BME280;8746;49.230;9.220;2022-09-12T04:19:20;100061.53;;;10.93;91.65
17260;BME280;8746;49.230;9.220;2022-09-12T04:21:46;100057.00;;;10.97;91.72
17260;BME280;8746;49.230;9.220;2022-09-12T04:24:11;100054.66;;;10.89;91.71
17260;BME280;8746;49.230;9.220;2022-09-12T04:26:37;100053.75;;;10.90;91.88
17260;BME280;8746;49.230;9.220;2022-09-12T04:29:02;100055.75;;;10.83;91.71
17260;BME280;8746;49.230;9.220;2022-09-12T04:31:28;100063.97;;;10.76;92.04
17260;BME280;8746;49.230;9.220;2022-09-12T04:33:55;100064.75;;;10.78;92.01
17260;BME280;8746;49.230;9.220;2022-09-12T04:36:20;100061.34;;;10.76;92.31
17260;BME280;8746;49.230;9.220;2022-09-12T04:38:48;100060.19;;;10.83;91.98
17260;BME280;8746;49.230;9.220;2022-09-12T04:43:46;100057.81;;;10.75;92.55
17260;BME280;8746;49.230;9.220;2022-09-12T04:46:14;100059.06;;;10.66;92.95
17260;BME280;8746;49.230;9.220;2022-09-12T04:48:40;100055.06;;;10.56;93.24
17260;BME280;8746;49.230;9.220;2022-09-12T04:51:18;100052.47;;;10.54;93.44
17260;BME280;8746;49.230;9.220;2022-09-12T04:53:48;100057.75;;;10.54;93.25
17260;BME280;8746;49.230;9.220;2022-09-12T04:56:14;100057.88;;;10.51;93.38
17260;BME280;8746;49.230;9.220;2022-09-12T04:58:39;100054.16;;;10.57;93.08
17260;BME280;8746;49.230;9.220;2022-09-12T05:01:13;100050.53;;;10.60;92.40
17260;BME280;8746;49.230;9.220;2022-09-12T05:03:40;100050.81;;;10.52;92.64
17260;BME280;8746;49.230;9.220;2022-09-12T05:06:12;100055.47;;;10.45;92.65
17260;BME280;8746;49.230;9.220;2022-09-12T05:08:38;100052.09;;;10.41;92.59
17260;BME280;8746;49.230;9.220;2022-09-12T05:11:05;100050.19;;;10.45;92.67
17260;BME280;8746;49.230;9.220;2022-09-12T05:13:32;100054.59;;;10.45;92.57
17260;BME280;8746;49.230;9.220;2022-09-12T05:16:00;100058.84;;;10.49;92.54
17260;BME280;8746;49.230;9.220;2022-09-12T05:18:26;100057.13;;;10.48;92.58
17260;BME280;8746;49.230;9.220;2022-09-12T05:20:52;100069.41;;;10.49;93.19
17260;BME280;8746;49.230;9.220;2022-09-12T05:23:18;100060.69;;;10.47;92.77
17260;BME280;8746;49.230;9.220;2022-09-12T05:25:48;100063.81;;;10.56;92.67
17260;BME280;8746;49.230;9.220;2022-09-12T05:28:14;100072.31;;;10.65;92.27
17260;BME280;8746;49.230;9.220;2022-09-12T05:30:40;100077.44;;;10.68;91.78
17260;BME280;8746;49.230;9.220;2022-09-12T05:33:05;100072.06;;;10.71;91.56
17260;BME280;8746;49.230;9.220;2022-09-12T05:35:30;100077.91;;;10.79;91.78
17260;BME280;8746;49.230;9.220;2022-09-12T05:37:57;100086.34;;;10.89;91.54
17260;BME280;8746;49.230;9.220;2022-09-12T05:40:22;100082.53;;;10.96;91.48
17260;BME280;8746;49.230;9.220;2022-09-12T05:42:48;100077.78;;;11.04;91.45
17260;BME280;8746;49.230;9.220;2022-09-12T05:45:13;100078.59;;;11.06;91.23
17260;BME280;8746;49.230;9.220;2022-09-12T05:47:39;100074.78;;;11.14;91.03
17260;BME280;8746;49.230;9.220;2022-09-12T05:50:04;100079.00;;;11.18;90.91
17260;BME280;8746;49.230;9.220;2022-09-12T05:52:35;100075.03;;;11.30;90.65
17260;BME280;8746;49.230;9.220;2022-09-12T05:55:00;100066.63;;;11.20;90.72
17260;BME280;8746;49.230;9.220;2022-09-12T05:57:25;100070.66;;;11.29;89.84
17260;BME280;8746;49.230;9.220;2022-09-12T05:59:51;100073.72;;;11.18;90.75
17260;BME280;8746;49.230;9.220;2022-09-12T06:02:17;100071.91;;;11.20;91.06
17260;BME280;8746;49.230;9.220;2022-09-12T06:04:42;100078.47;;;11.32;90.85
17260;BME280;8746;49.230;9.220;2022-09-12T06:07:07;100066.78;;;11.37;90.74
17260;BME280;8746;49.230;9.220;2022-09-12T06:09:33;100068.38;;;11.42;90.16
17260;BME280;8746;49.230;9.220;2022-09-12T06:11:58;100064.41;;;11.52;91.13
17260;BME280;8746;49.230;9.220;2022-09-12T06:14:24;100069.63;;;11.53;90.80
17260;BME280;8746;49.230;9.220;2022-09-12T06:16:50;100077.25;;;11.61;90.86
17260;BME280;8746;49.230;9.220;2022-09-12T06:19:20;100061.06;;;11.69;90.79
17260;BME280;8746;49.230;9.220;2022-09-12T06:21:46;100068.53;;;11.80;90.28
17260;BME280;8746;49.230;9.220;2022-09-12T06:24:13;100064.41;;;11.93;90.42
17260;BME280;8746;49.230;9.220;2022-09-12T06:26:39;100064.19;;;11.99;89.49
17260;BME280;8746;49.230;9.220;2022-09-12T06:29:04;100065.34;;;12.13;89.26
17260;BME280;8746;49.230;9.220;2022-09-12T06:31:32;100061.22;;;12.26;88.67
17260;BME280;8746;49.230;9.220;2022-09-12T06:34:03;100059.50;;;12.25;89.20
17260;BME280;8746;49.230;9.220;2022-09-12T06:36:32;100064.78;;;12.25;89.04
17260;BME280;8746;49.230;9.220;2022-09-12T06:39:00;100058.66;;;12.44;88.74
17260;BME280;8746;49.230;9.220;2022-09-12T06:41:27;100059.97;;;12.54;88.64
17260;BME280;8746;49.230;9.220;2022-09-12T06:43:53;100058.03;;;12.58;88.37
17260;BME280;8746;49.230;9.220;2022-09-12T06:46:20;100058.97;;;12.57;88.54
17260;BME280;8746;49.230;9.220;2022-09-12T06:48:45;100060.19;;;12.49;88.71
17260;BME280;8746;49.230;9.220;2022-09-12T06:51:13;100062.53;;;12.75;88.39
17260;BME280;8746;49.230;9.220;2022-09-12T06:53:39;100059.00;;;12.74;87.77
17260;BME280;8746;49.230;9.220;2022-09-12T06:58:32;100060.38;;;12.83;87.45
17260;BME280;8746;49.230;9.220;2022-09-12T07:01:05;100063.81;;;12.85;87.64
17260;BME280;8746;49.230;9.220;2022-09-12T07:03:32;100058.38;;;12.88;87.18
17260;BME280;8746;49.230;9.220;2022-09-12T07:06:05;100061.03;;;12.88;87.79
17260;BME280;8746;49.230;9.220;2022-09-12T07:08:32;100063.06;;;13.01;87.55
17260;BME280;8746;49.230;9.220;2022-09-12T07:11:06;100056.31;;;13.12;87.26
17260;BME280;8746;49.230;9.220;2022-09-12T07:13:32;100052.09;;;13.08;86.27
17260;BME280;8746;49.230;9.220;2022-09-12T07:16:01;100044.34;;;13.23;86.96
17260;BME280;8746;49.230;9.220;2022-09-12T07:18:26;100047.94;;;13.39;85.74
17260;BME280;8746;49.230;9.220;2022-09-12T07:20:52;100057.41;;;13.45;85.59
17260;BME280;8746;49.230;9.220;2022-09-12T07:23:17;100053.97;;;13.60;85.21
17260;BME280;8746;49.230;9.220;2022-09-12T07:25:43;100048.28;;;13.68;84.31
17260;BME280;8746;49.230;9.220;2022-09-12T07:28:08;100052.56;;;13.71;84.32
17260;BME280;8746;49.230;9.220;2022-09-12T07:30:35;100054.56;;;13.83;84.23
17260;BME280;8746;49.230;9.220;2022-09-12T07:33:00;100052.25;;;13.77;84.20
17260;BME280;8746;49.230;9.220;2022-09-12T07:35:26;100052.16;;;13.96;84.40
17260;BME280;8746;49.230;9.220;2022-09-12T07:37:51;100056.25;;;14.02;83.54
17260;BME280;8746;49.230;9.220;2022-09-12T07:40:16;100061.41;;;14.05;83.71
17260;BME280;8746;49.230;9.220;2022-09-12T07:42:41;100057.50;;;14.12;83.57
17260;BME280;8746;49.230;9.220;2022-09-12T07:45:07;100061.69;;;14.16;83.84
17260;BME280;8746;49.230;9.220;2022-09-12T07:47:33;100049.22;;;14.34;82.81
17260;BME280;8746;49.230;9.220;2022-09-12T07:49:58;100056.50;;;14.31;83.38
17260;BME280;8746;49.230;9.220;2022-09-12T07:52:24;100052.25;;;14.44;83.33
17260;BME280;8746;49.230;9.220;2022-09-12T07:54:49;100044.03;;;14.49;83.19
17260;BME280;8746;49.230;9.220;2022-09-12T07:57:15;100046.34;;;14.55;82.55
17260;BME280;8746;49.230;9.220;2022-09-12T07:59:40;100038.84;;;14.79;82.58
17260;BME280;8746;49.230;9.220;2022-09-12T08:02:10;100054.50;;;14.84;81.49
17260;BME280;8746;49.230;9.220;2022-09-12T08:04:38;100052.63;;;14.86;81.67
17260;BME280;8746;49.230;9.220;2022-09-12T08:07:03;100049.38;;;14.97;81.41
17260;BME280;8746;49.230;9.220;2022-09-12T08:09:30;100049.69;;;15.06;81.71
17260;BME280;8746;49.230;9.220;2022-09-12T08:11:56;100045.22;;;15.07;81.39
17260;BME280;8746;49.230;9.220;2022-09-12T08:14:21;100049.03;;;15.33;80.75
17260;BME280;8746;49.230;9.220;2022-09-12T08:16:46;100052.69;;;15.47;79.87
17260;BME280;8746;49.230;9.220;2022-09-12T08:19:12;100053.41;;;15.65;79.48
17260;BME280;8746;49.230;9.220;2022-09-12T08:21:37;100040.84;;;15.67;79.12
17260;BME280;8746;49.230;9.220;2022-09-12T08:24:04;100045.53;;;15.78;79.16
17260;BME280;8746;49.230;9.220;2022-09-12T08:26:31;100033.56;;;15.70;78.34
17260;BME280;8746;49.230;9.220;2022-09-12T08:28:57;100042.47;;;15.85;78.36
17260;BME280;8746;49.230;9.220;2022-09-12T08:31:24;100045.78;;;16.03;78.28
17260;BME280;8746;49.230;9.220;2022-09-12T08:33:50;100039.59;;;16.32;77.67
17260;BME280;8746;49.230;9.220;2022-09-12T08:36:24;100043.28;;;16.44;76.61
17260;BME280;8746;49.230;9.220;2022-09-12T08:38:54;100043.78;;;16.50;76.67
17260;BME280;8746;49.230;9.220;2022-09-12T08:41:28;100036.38;;;16.41;75.96
17260;BME280;8746;49.230;9.220;2022-09-12T08:49:35;100030.88;;;16.72;74.92
17260;BME280;8746;49.230;9.220;2022-09-12T08:52:10;100032.59;;;16.73;75.32
17260;BME280;8746;49.230;9.220;2022-09-12T08:54:39;100033.41;;;16.88;75.22
17260;BME280;8746;49.230;9.220;2022-09-12T08:57:05;100039.38;;;17.06;74.75
17260;BME280;8746;49.230;9.220;2022-09-12T08:59:38;100031.66;;;17.28;72.68
17260;BME280;8746;49.230;9.220;2022-09-12T09:08:01;100016.28;;;18.11;70.76
17260;BME280;8746;49.230;9.220;2022-09-12T09:10:39;100019.03;;;18.22;69.53
17260;BME280;8746;49.230;9.220;2022-09-12T09:16:21;100008.16;;;18.25;68.94
17260;BME280;8746;49.230;9.220;2022-09-12T09:18:49;100003.03;;;18.22;69.16
17260;BME280;8746;49.230;9.220;2022-09-12T09:21:24;100000.09;;;18.51;68.57
17260;BME280;8746;49.230;9.220;2022-09-12T09:24:04;100000.78;;;18.66;67.94
17260;BME280;8746;49.230;9.220;2022-09-12T09:26:35;99993.75;;;18.77;67.56
17260;BME280;8746;49.230;9.220;2022-09-12T09:29:25;99996.81;;;18.96;66.74
17260;BME280;8746;49.230;9.220;2022-09-12T09:31:54;99999.91;;;18.90;65.61
17260;BME280;8746;49.230;9.220;2022-09-12T09:34:28;99996.22;;;19.28;65.08
17260;BME280;8746;49.230;9.220;2022-09-12T09:37:03;99991.81;;;19.51;64.88
17260;BME280;8746;49.230;9.220;2022-09-12T09:39:41;99989.28;;;19.73;64.11
17260;BME280;8746;49.230;9.220;2022-09-12T09:44:46;99984.69;;;20.31;62.04
17260;BME280;8746;49.230;9.220;2022-09-12T09:47:13;99991.09;;;20.52;61.15
17260;BME280;8746;49.230;9.220;2022-09-12T09:49:39;99991.91;;;20.75;61.58
17260;BME280;8746;49.230;9.220;2022-09-12T09:52:07;99999.00;;;20.76;60.46
17260;BME280;8746;49.230;9.220;2022-09-12T09:54:54;99988.75;;;21.35;58.34
17260;BME280;8746;49.230;9.220;2022-09-12T10:00:22;99981.25;;;21.71;56.36
17260;BME280;8746;49.230;9.220;2022-09-12T10:05:51;99979.53;;;22.32;56.00
17260;BME280;8746;49.230;9.220;2022-09-12T10:08:27;99984.03;;;21.90;55.28
17260;BME280;8746;49.230;9.220;2022-09-12T10:10:56;99984.66;;;22.04;54.75
17260;BME280;8746;49.230;9.220;2022-09-12T10:13:30;99981.94;;;22.35;54.40
17260;BME280;8746;49.230;9.220;2022-09-12T10:16:02;99980.19;;;22.24;53.95
17260;BME280;8746;49.230;9.220;2022-09-12T10:18:40;99978.47;;;22.54;52.79
17260;BME280;8746;49.230;9.220;2022-09-12T10:21:20;99976.41;;;22.77;53.48
17260;BME280;8746;49.230;9.220;2022-09-12T10:23:46;99969.06;;;23.38;50.55
17260;BME280;8746;49.230;9.220;2022-09-12T10:26:18;99963.88;;;23.64;49.53
17260;BME280;8746;49.230;9.220;2022-09-12T10:28:48;99959.09;;;23.48;48.65
17260;BME280;8746;49.230;9.220;2022-09-12T10:31:23;99957.00;;;23.03;49.94
17260;BME280;8746;49.230;9.220;2022-09-12T10:33:55;99961.63;;;23.60;50.06
17260;BME280;8746;49.230;9.220;2022-09-12T10:36:22;99957.19;;;24.16;47.09
17260;BME280;8746;49.230;9.220;2022-09-12T10:38:50;99954.19;;;23.81;47.58
17260;BME280;8746;49.230;9.220;2022-09-12T10:41:17;99959.84;;;22.92;50.17
17260;BME280;8746;49.230;9.220;2022-09-12T10:43:43;99960.78;;;22.51;50.71
17260;BME280;8746;49.230;9.220;2022-09-12T10:48:47;99947.22;;;23.41;49.48
17260;BME280;8746;49.230;9.220;2022-09-12T10:53:58;99950.56;;;24.10;47.54
17260;BME280;8746;49.230;9.220;2022-09-12T10:56:31;99949.09;;;23.78;48.05
17260;BME280;8746;49.230;9.220;2022-09-12T10:59:08;99943.22;;;23.55;48.43
17260;BME280;8746;49.230;9.220;2022-09-12T11:01:46;99945.09;;;23.92;47.88
17260;BME280;8746;49.230;9.220;2022-09-12T11:13:03;99931.44;;;24.49;45.54
17260;BME280;8746;49.230;9.220;2022-09-12T11:21:54;99918.72;;;24.60;46.05
17260;BME280;8746;49.230;9.220;2022-09-12T11:24:45;99917.19;;;25.11;45.22
17260;BME280;8746;49.230;9.220;2022-09-12T11:27:18;99913.22;;;25.24;44.38
17260;BME280;8746;49.230;9.220;2022-09-12T11:29:53;99913.97;;;25.34;44.99
17260;BME280;8746;49.230;9.220;2022-09-12T11:35:17;99910.94;;;25.11;45.08
17260;BME280;8746;49.230;9.220;2022-09-12T11:45:43;99902.50;;;25.32;45.17
17260;BME280;8746;49.230;9.220;2022-09-12T11:51:17;99892.16;;;24.83;45.05
17260;BME280;8746;49.230;9.220;2022-09-12T11:53:46;99892.97;;;24.75;45.17
17260;BME280;8746;49.230;9.220;2022-09-12T11:56:18;99883.81;;;24.94;43.78
17260;BME280;8746;49.230;9.220;2022-09-12T11:58:57;99882.53;;;24.80;43.67
17260;BME280;8746;49.230;9.220;2022-09-12T12:01:31;99878.91;;;24.90;43.81
17260;BME280;8746;49.230;9.220;2022-09-12T12:04:00;99878.22;;;24.88;44.31
17260;BME280;8746;49.230;9.220;2022-09-12T12:06:31;99889.44;;;24.29;45.09
17260;BME280;8746;49.230;9.220;2022-09-12T12:08:58;99872.09;;;24.77;43.95
17260;BME280;8746;49.230;9.220;2022-09-12T12:11:31;99870.41;;;25.03;43.90
17260;BME280;8746;49.230;9.220;2022-09-12T12:14:03;99860.91;;;25.17;43.91
17260;BME280;8746;49.230;9.220;2022-09-12T12:16:37;99866.59;;;25.13;43.66
17260;BME280;8746;49.230;9.220;2022-09-12T12:19:20;99868.66;;;24.57;44.37
17260;BME280;8746;49.230;9.220;2022-09-12T12:21:51;99869.34;;;24.41;45.51
17260;BME280;8746;49.230;9.220;2022-09-12T12:24:20;99869.50;;;24.22;44.86
17260;BME280;8746;49.230;9.220;2022-09-12T12:32:18;99865.09;;;24.21;44.99
17260;BME280;8746;49.230;9.220;2022-09-12T12:34:45;99862.84;;;23.98;46.40
17260;BME280;8746;49.230;9.220;2022-09-12T12:47:41;99849.75;;;24.03;45.02
17260;BME280;8746;49.230;9.220;2022-09-12T12:52:52;99832.06;;;23.91;44.47
17260;BME280;8746;49.230;9.220;2022-09-12T12:57:51;99833.19;;;23.70;45.25
17260;BME280;8746;49.230;9.220;2022-09-12T13:05:50;99826.31;;;23.58;45.30
17260;BME280;8746;49.230;9.220;2022-09-12T13:10:50;99815.69;;;23.46;45.70
17260;BME280;8746;49.230;9.220;2022-09-12T13:13:33;99815.41;;;23.77;44.81
17260;BME280;8746;49.230;9.220;2022-09-12T13:16:00;99811.38;;;23.63;45.49
17260;BME280;8746;49.230;9.220;2022-09-12T13:18:39;99799.44;;;23.66;44.96
17260;BME280;8746;49.230;9.220;2022-09-12T13:21:12;99799.81;;;23.53;44.85
17260;BME280;8746;49.230;9.220;2022-09-12T13:23:38;99795.19;;;23.45;44.79
17260;BME280;8746;49.230;9.220;2022-09-12T13:26:21;99794.16;;;23.46;44.14
17260;BME280;8746;49.230;9.220;2022-09-12T13:28:47;99798.44;;;23.39;45.43
17260;BME280;8746;49.230;9.220;2022-09-12T13:31:25;99790.09;;;23.42;45.00
17260;BME280;8746;49.230;9.220;2022-09-12T13:33:57;99790.28;;;23.59;44.42
17260;BME280;8746;49.230;9.220;2022-09-12T13:39:33;99785.59;;;23.61;44.29
17260;BME280;8746;49.230;9.220;2022-09-12T13:44:58;99768.41;;;23.90;44.17
17260;BME280;8746;49.230;9.220;2022-09-12T13:47:35;99761.00;;;23.92;43.83
17260;BME280;8746;49.230;9.220;2022-09-12T13:50:03;99758.06;;;23.95;44.20
17260;BME280;8746;49.230;9.220;2022-09-12T13:52:32;99765.72;;;23.90;43.26
17260;BME280;8746;49.230;9.220;2022-09-12T13:54:59;99765.63;;;23.81;44.00
17260;BME280;8746;49.230;9.220;2022-09-12T13:57:37;99762.00;;;24.00;42.74
17260;BME280;8746;49.230;9.220;2022-09-12T14:00:17;99761.41;;;23.79;42.73
17260;BME280;8746;49.230;9.220;2022-09-12T14:02:47;99760.47;;;23.70;42.90
17260;BME280;8746;49.230;9.220;2022-09-12T14:05:19;99746.63;;;23.83;42.04
17260;BME280;8746;49.230;9.220;2022-09-12T14:07:53;99758.66;;;23.61;41.97
17260;BME280;8746;49.230;9.220;2022-09-12T14:10:31;99755.25;;;23.59;42.19
17260;BME280;8746;49.230;9.220;2022-09-12T14:12:59;99751.91;;;23.57;42.09
17260;BME280;8746;49.230;9.220;2022-09-12T14:15:28;99751.88;;;23.84;41.30
17260;BME280;8746;49.230;9.220;2022-09-12T14:17:57;99752.94;;;23.74;41.61
17260;BME280;8746;49.230;9.220;2022-09-12T14:20:26;99738.69;;;23.81;42.42
17260;BME280;8746;49.230;9.220;2022-09-12T14:22:59;99739.72;;;23.98;42.06
17260;BME280;8746;49.230;9.220;2022-09-12T14:25:26;99737.03;;;23.98;41.31
17260;BME280;8746;49.230;9.220;2022-09-12T14:27:55;99734.34;;;23.98;41.29
17260;BME280;8746;49.230;9.220;2022-09-12T14:30:30;99741.09;;;24.03;41.01
17260;BME280;8746;49.230;9.220;2022-09-12T14:35:38;99734.81;;;24.12;40.18
17260;BME280;8746;49.230;9.220;2022-09-12T14:38:28;99734.38;;;24.25;41.51
17260;BME280;8746;49.230;9.220;2022-09-12T14:41:01;99731.41;;;24.28;39.59
17260;BME280;8746;49.230;9.220;2022-09-12T14:43:29;99737.72;;;24.19;41.73
17260;BME280;8746;49.230;9.220;2022-09-12T14:46:21;99727.63;;;24.21;40.79
17260;BME280;8746;49.230;9.220;2022-09-12T14:48:51;99728.16;;;24.24;40.54
17260;BME280;8746;49.230;9.220;2022-09-12T14:51:32;99712.69;;;24.26;41.12
17260;BME280;8746;49.230;9.220;2022-09-12T14:53:59;99719.63;;;24.55;41.13
17260;BME280;8746;49.230;9.220;2022-09-12T14:56:40;99715.97;;;24.38;40.90
17260;BME280;8746;49.230;9.220;2022-09-12T15:02:21;99715.06;;;24.29;42.46
17260;BME280;8746;49.230;9.220;2022-09-12T15:10:02;99700.03;;;24.71;38.94
17260;BME280;8746;49.230;9.220;2022-09-12T15:12:28;99698.09;;;24.82;37.19
17260;BME280;8746;49.230;9.220;2022-09-12T15:15:12;99695.25;;;25.26;36.16
17260;BME280;8746;49.230;9.220;2022-09-12T15:17:38;99691.31;;;26.70;35.07
17260;BME280;8746;49.230;9.220;2022-09-12T15:20:04;99687.97;;;27.79;33.48
17260;BME280;8746;49.230;9.220;2022-09-12T15:22:30;99690.94;;;28.54;32.24
17260;BME280;8746;49.230;9.220;2022-09-12T15:24:57;99694.91;;;28.97;30.32
17260;BME280;8746;49.230;9.220;2022-09-12T15:27:23;99690.25;;;29.57;29.69
17260;BME280;8746;49.230;9.220;2022-09-12T15:29:50;99675.03;;;30.28;29.73
17260;BME280;8746;49.230;9.220;2022-09-12T15:32:22;99683.22;;;30.84;29.11
17260;BME280;8746;49.230;9.220;2022-09-12T15:34:48;99681.75;;;30.89;27.72
17260;BME280;8746;49.230;9.220;2022-09-12T15:37:13;99681.31;;;31.89;26.56
17260;BME280;8746;49.230;9.220;2022-09-12T15:39:39;99684.31;;;31.39;27.49